createdAt,value
2022-09-03T00:02:15.590Z,56.65
2022-09-03T00:04:53.239Z,56.52
2022-09-03T00:07:28.420Z,56.36
2022-09-03T00:10:01.643Z,56.56
2022-09-03T00:12:34.290Z,56.65
2022-09-03T00:15:09.250Z,56.77
2022-09-03T00:17:41.783Z,56.55
2022-09-03T00:20:16.910Z,56.50
2022-09-03T00:22:49.480Z,56.67
2022-09-03T00:25:22.570Z,56.67
2022-09-03T00:27:56.710Z,56.59
2022-09-03T00:30:28.270Z,56.95
2022-09-03T00:33:02.150Z,56.81
2022-09-03T00:35:34.780Z,56.70
2022-09-03T00:38:03.670Z,56.73
2022-09-03T00:40:48.420Z,56.99
2022-09-03T00:43:31.815Z,56.69
2022-09-03T00:46:17.514Z,57.10
2022-09-03T00:49:01.770Z,56.94
2022-09-03T00:51:39.210Z,56.81
2022-09-03T00:54:15.630Z,57.13
2022-09-03T00:56:52.795Z,56.88
2022-09-03T00:59:33.296Z,56.90
2022-09-03T01:02:14.782Z,57.26
2022-09-03T01:04:54.480Z,57.39
2022-09-03T01:07:39.460Z,57.28
2022-09-03T01:10:17.810Z,57.16
2022-09-03T01:12:54.649Z,57.30
2022-09-03T01:15:32.511Z,56.96
2022-09-03T01:18:21.896Z,57.30
2022-09-03T01:21:01.300Z,57.42
2022-09-03T01:23:50.920Z,57.11
2022-09-03T01:26:32.472Z,57.27
2022-09-03T01:29:14.210Z,57.12
2022-09-03T01:31:52.779Z,57.47
2022-09-03T01:34:32.445Z,57.30
2022-09-03T01:37:15.191Z,57.21
2022-09-03T01:39:57.016Z,57.06
2022-09-03T01:42:38.180Z,57.47
2022-09-03T01:45:24.090Z,57.46
2022-09-03T01:48:06.585Z,57.66
2022-09-03T01:50:44.643Z,57.61
2022-09-03T01:53:30.570Z,57.40
2022-09-03T01:56:13.609Z,57.29
2022-09-03T01:58:46.729Z,57.49
2022-09-03T02:01:23.734Z,57.39
2022-09-03T02:03:54.399Z,57.77
2022-09-03T02:06:23.029Z,57.78
2022-09-03T02:08:51.550Z,57.63
2022-09-03T02:11:20.064Z,57.51
2022-09-03T02:13:52.290Z,57.93
2022-09-03T02:16:25.737Z,57.54
2022-09-03T02:18:59.555Z,57.99
2022-09-03T02:21:31.739Z,57.70
2022-09-03T02:24:01.172Z,57.56
2022-09-03T02:26:29.780Z,57.39
2022-09-03T02:28:59.250Z,57.56
2022-09-03T02:31:29.417Z,57.67
2022-09-03T02:33:59.289Z,57.81
2022-09-03T02:36:32.300Z,57.65
2022-09-03T02:39:01.184Z,57.39
2022-09-03T02:41:29.849Z,57.64
2022-09-03T02:44:04.620Z,57.05
2022-09-03T02:46:40.259Z,57.08
2022-09-03T02:49:08.629Z,56.95
2022-09-03T02:51:38.150Z,57.27
2022-09-03T02:54:06.740Z,57.16
2022-09-03T02:56:35.420Z,57.70
2022-09-03T02:59:04.242Z,57.27
2022-09-03T03:01:33.335Z,57.38
2022-09-03T03:04:03.530Z,57.48
2022-09-03T03:06:32.060Z,57.70
2022-09-03T03:09:04.290Z,57.29
2022-09-03T03:11:33.449Z,57.48
2022-09-03T03:14:02.002Z,57.35
2022-09-03T03:16:30.614Z,57.77
2022-09-03T03:19:00.369Z,57.31
2022-09-03T03:21:31.189Z,57.67
2022-09-03T03:24:07.850Z,57.44
2022-09-03T03:26:36.740Z,57.99
2022-09-03T03:29:06.334Z,57.58
2022-09-03T03:31:35.649Z,57.62
2022-09-03T03:34:05.149Z,57.41
2022-09-03T03:36:35.801Z,58.30
2022-09-03T03:39:04.829Z,58.00
2022-09-03T03:41:35.029Z,57.95
2022-09-03T03:44:05.833Z,57.79
2022-09-03T03:46:36.410Z,57.64
2022-09-03T03:49:06.699Z,57.67
2022-09-03T03:51:38.214Z,57.70
2022-09-03T03:54:06.996Z,57.89
2022-09-03T03:56:36.769Z,57.27
2022-09-03T03:59:05.559Z,57.45
2022-09-03T04:01:34.354Z,57.70
2022-09-03T04:04:02.982Z,57.59
2022-09-03T04:06:31.489Z,58.33
2022-09-03T04:09:01.530Z,58.28
2022-09-03T04:11:30.049Z,58.22
2022-09-03T04:13:58.610Z,58.08
2022-09-03T04:16:28.475Z,58.10
2022-09-03T04:18:57.929Z,58.59
2022-09-03T04:21:28.786Z,58.34
2022-09-03T04:23:58.201Z,58.41
2022-09-03T04:26:31.971Z,58.45
2022-09-03T04:29:01.428Z,58.30
2022-09-03T04:31:30.509Z,58.85
2022-09-03T04:34:00.560Z,58.60
2022-09-03T04:36:31.109Z,58.79
2022-09-03T04:39:01.962Z,58.08
2022-09-03T04:41:33.151Z,58.59
2022-09-03T04:44:02.038Z,58.23
2022-09-03T04:46:34.078Z,58.90
2022-09-03T04:49:03.393Z,58.73
2022-09-03T04:51:32.014Z,58.73
2022-09-03T04:54:02.460Z,58.82
2022-09-03T04:56:35.310Z,59.38
2022-09-03T04:59:05.893Z,58.95
2022-09-03T05:01:36.598Z,58.82
2022-09-03T05:04:06.569Z,58.74
2022-09-03T05:06:35.769Z,59.05
2022-09-03T05:09:05.239Z,58.67
2022-09-03T05:11:35.290Z,58.85
2022-09-03T05:14:06.097Z,59.23
2022-09-03T05:16:34.722Z,59.21
2022-09-03T05:19:03.910Z,58.92
2022-09-03T05:21:32.447Z,59.13
2022-09-03T05:24:03.209Z,58.92
2022-09-03T05:26:33.320Z,59.26
2022-09-03T05:29:07.828Z,59.12
2022-09-03T05:31:39.391Z,59.23
2022-09-03T05:34:10.253Z,59.37
2022-09-03T05:36:47.340Z,59.14
2022-09-03T05:39:15.771Z,59.05
2022-09-03T05:41:44.299Z,59.13
2022-09-03T05:44:14.909Z,59.42
2022-09-03T05:46:43.439Z,59.29
2022-09-03T05:49:12.099Z,59.42
2022-09-03T05:51:40.949Z,59.45
2022-09-03T05:54:10.032Z,59.19
2022-09-03T05:56:42.751Z,59.39
2022-09-03T05:59:12.229Z,59.46
2022-09-03T06:01:48.606Z,59.51
2022-09-03T06:04:20.894Z,59.20
2022-09-03T06:06:50.301Z,59.43
2022-09-03T06:09:21.025Z,59.35
2022-09-03T06:11:52.476Z,59.36
2022-09-03T06:14:22.324Z,59.55
2022-09-03T06:16:53.409Z,59.24
2022-09-03T06:19:22.030Z,59.01
2022-09-03T06:21:50.612Z,59.10
2022-09-03T06:24:21.898Z,59.35
2022-09-03T06:26:54.660Z,59.23
2022-09-03T06:29:23.309Z,59.37
2022-09-03T06:31:53.389Z,59.48
2022-09-03T06:34:22.991Z,58.98
2022-09-03T06:36:51.509Z,59.27
2022-09-03T06:39:23.221Z,59.23
2022-09-03T06:41:52.598Z,59.10
2022-09-03T06:44:21.074Z,59.28
2022-09-03T06:46:50.819Z,59.38
2022-09-03T06:49:21.582Z,59.09
2022-09-03T06:51:50.049Z,59.19
2022-09-03T06:54:18.630Z,59.22
2022-09-03T06:56:47.199Z,59.29
2022-09-03T06:59:16.590Z,59.37
2022-09-03T07:01:46.702Z,58.98
2022-09-03T07:04:20.096Z,59.15
2022-09-03T07:06:50.791Z,59.17
2022-09-03T07:09:19.349Z,59.39
2022-09-03T07:11:49.439Z,59.15
2022-09-03T07:14:19.691Z,59.18
2022-09-03T07:16:48.983Z,59.21
2022-09-03T07:19:17.883Z,59.11
2022-09-03T07:21:50.565Z,59.26
2022-09-03T07:24:22.622Z,59.35
2022-09-03T07:26:51.671Z,59.38
2022-09-03T07:29:21.924Z,59.48
2022-09-03T07:31:53.281Z,59.28
2022-09-03T07:34:26.932Z,59.48
2022-09-03T07:36:56.121Z,59.04
2022-09-03T07:39:26.157Z,59.46
2022-09-03T07:41:55.092Z,59.39
2022-09-03T07:44:24.757Z,59.15
2022-09-03T07:46:53.461Z,59.14
2022-09-03T07:49:22.719Z,59.21
2022-09-03T07:51:54.772Z,59.10
2022-09-03T07:54:24.342Z,59.01
2022-09-03T07:56:55.588Z,58.97
2022-09-03T07:59:25.009Z,59.05
2022-09-03T08:01:53.510Z,59.11
2022-09-03T08:04:23.130Z,59.18
2022-09-03T08:06:57.185Z,59.28
2022-09-03T08:09:25.754Z,59.07
2022-09-03T08:11:55.770Z,59.09
2022-09-03T08:14:24.260Z,59.23
2022-09-03T08:16:53.015Z,58.99
2022-09-03T08:19:23.439Z,59.21
2022-09-03T08:21:52.259Z,58.95
2022-09-03T08:24:22.159Z,58.86
2022-09-03T08:26:52.334Z,59.10
2022-09-03T08:29:23.624Z,58.92
2022-09-03T08:31:52.538Z,58.89
2022-09-03T08:34:21.664Z,58.85
2022-09-03T08:36:50.636Z,58.86
2022-09-03T08:39:19.341Z,58.79
2022-09-03T08:42:19.319Z,59.00
2022-09-03T08:44:54.510Z,59.03
2022-09-03T08:47:26.460Z,58.93
2022-09-03T08:49:59.769Z,58.96
2022-09-03T08:52:33.999Z,58.85
2022-09-03T08:55:15.970Z,58.86
2022-09-03T08:57:48.749Z,58.79
2022-09-03T09:00:19.383Z,58.77
2022-09-03T09:02:59.850Z,58.78
2022-09-03T09:05:45.006Z,58.98
2022-09-03T09:08:22.564Z,58.76
2022-09-03T09:11:02.771Z,58.86
2022-09-03T09:13:38.633Z,58.97
2022-09-03T09:16:19.525Z,58.80
2022-09-03T09:18:59.440Z,58.63
2022-09-03T09:21:31.547Z,58.87
2022-09-03T09:24:04.279Z,58.56
2022-09-03T09:26:33.409Z,58.49
2022-09-03T09:29:10.161Z,58.76
2022-09-03T09:31:45.361Z,58.61
2022-09-03T09:34:14.302Z,58.63
2022-09-03T09:36:50.259Z,58.68
2022-09-03T09:39:19.490Z,58.48
2022-09-03T09:41:59.626Z,58.34
2022-09-03T09:44:28.649Z,58.46
2022-09-03T09:47:12.149Z,58.59
2022-09-03T09:49:54.289Z,58.85
2022-09-03T09:52:26.136Z,58.54
2022-09-03T09:55:08.369Z,58.58
2022-09-03T09:57:37.562Z,59.10
2022-09-03T10:00:11.062Z,59.03
2022-09-03T10:02:42.552Z,59.08
2022-09-03T10:05:17.370Z,58.94
2022-09-03T10:07:57.079Z,58.62
2022-09-03T10:10:27.449Z,59.03
2022-09-03T10:13:01.919Z,58.99
2022-09-03T10:15:37.790Z,59.19
2022-09-03T10:18:16.125Z,58.96
2022-09-03T10:20:52.064Z,58.86
2022-09-03T10:23:25.582Z,59.06
2022-09-03T10:26:07.682Z,58.85
2022-09-03T10:28:41.602Z,58.86
2022-09-03T10:31:53.925Z,59.36
2022-09-03T10:34:58.999Z,58.94
2022-09-03T10:37:46.561Z,59.50
2022-09-03T10:40:36.949Z,59.38
2022-09-03T10:43:33.774Z,58.90
2022-09-03T10:46:06.570Z,59.02
2022-09-03T10:48:47.455Z,59.04
2022-09-03T10:51:21.835Z,58.87
2022-09-03T10:54:03.675Z,59.34
2022-09-03T10:56:40.054Z,59.17
2022-09-03T10:59:33.859Z,58.98
2022-09-03T11:02:19.242Z,59.21
2022-09-03T11:04:57.879Z,59.12
2022-09-03T11:07:35.745Z,59.31
2022-09-03T11:10:14.573Z,59.26
2022-09-03T11:12:48.394Z,59.14
2022-09-03T11:15:28.652Z,59.10
2022-09-03T11:18:00.300Z,59.13
2022-09-03T11:20:29.309Z,59.35
2022-09-03T11:23:02.980Z,59.38
2022-09-03T11:25:35.780Z,59.50
2022-09-03T11:28:18.459Z,59.39
2022-09-03T11:30:58.894Z,59.64
2022-09-03T11:33:30.295Z,59.47
2022-09-03T11:36:02.079Z,59.36
2022-09-03T11:38:32.630Z,59.63
2022-09-03T11:41:05.289Z,59.69
2022-09-03T11:43:35.783Z,59.69
2022-09-03T11:46:12.908Z,59.79
2022-09-03T11:48:45.040Z,59.66
2022-09-03T11:51:33.509Z,59.87
2022-09-03T11:54:05.144Z,59.87
2022-09-03T11:56:35.310Z,59.45
2022-09-03T11:59:19.744Z,59.66
2022-09-03T12:01:53.695Z,59.54
2022-09-03T12:04:28.504Z,59.71
2022-09-03T12:07:17.578Z,59.56
2022-09-03T12:10:13.438Z,59.79
2022-09-03T12:12:54.504Z,60.19
2022-09-03T12:15:38.043Z,60.26
2022-09-03T12:18:22.735Z,59.99
2022-09-03T12:21:04.789Z,59.78
2022-09-03T12:23:36.149Z,60.13
2022-09-03T12:26:09.989Z,60.04
2022-09-03T12:28:44.054Z,60.35
2022-09-03T12:31:25.672Z,59.90
2022-09-03T12:33:56.576Z,60.09
2022-09-03T12:36:25.804Z,59.87
2022-09-03T12:39:11.576Z,59.98
2022-09-03T12:41:59.519Z,59.69
2022-09-03T12:44:30.359Z,59.84
2022-09-03T12:50:07.500Z,59.95
2022-09-03T12:52:41.388Z,59.98
2022-09-03T12:55:21.535Z,60.12
2022-09-03T12:57:57.018Z,60.35
2022-09-03T13:00:34.075Z,59.64
2022-09-03T13:03:07.004Z,60.34
2022-09-03T13:05:38.559Z,60.01
2022-09-03T13:08:12.494Z,60.51
2022-09-03T13:10:43.409Z,60.56
2022-09-03T13:13:31.574Z,60.32
2022-09-03T13:16:45.186Z,60.01
2022-09-03T13:20:26.132Z,60.37
2022-09-03T13:23:15.962Z,60.29
2022-09-03T13:26:00.688Z,59.98
2022-09-03T13:28:48.840Z,60.49
2022-09-03T13:31:30.849Z,60.41
2022-09-03T13:34:04.194Z,60.62
2022-09-03T13:36:39.284Z,60.91
2022-09-03T13:39:19.163Z,60.86
2022-09-03T13:41:53.670Z,60.50
2022-09-03T13:44:35.970Z,60.84
2022-09-03T13:47:11.569Z,60.80
2022-09-03T13:50:10.100Z,60.69
2022-09-03T13:52:43.231Z,60.64
2022-09-03T13:55:16.607Z,60.88
2022-09-03T13:57:52.874Z,60.89
2022-09-03T14:00:32.919Z,60.99
2022-09-03T14:03:13.379Z,60.99
2022-09-03T14:05:56.554Z,61.95
2022-09-03T14:08:30.615Z,63.02
2022-09-03T14:11:19.190Z,64.02
2022-09-03T14:14:02.249Z,64.46
2022-09-03T14:16:39.679Z,64.88
2022-09-03T14:19:15.890Z,64.99
2022-09-03T14:21:50.390Z,65.25
2022-09-03T14:24:25.799Z,65.52
2022-09-03T14:26:57.525Z,64.83
2022-09-03T14:29:29.721Z,64.73
2022-09-03T14:32:30.419Z,64.63
2022-09-03T14:35:24.920Z,64.49
2022-09-03T14:38:34.591Z,64.11
2022-09-03T14:41:08.270Z,63.72
2022-09-03T14:44:04.681Z,64.30
2022-09-03T14:46:45.778Z,63.82
2022-09-03T14:49:46.860Z,63.83
2022-09-03T14:52:34.790Z,63.44
2022-09-03T14:55:30.651Z,63.33
2022-09-03T14:58:18.525Z,63.18
2022-09-03T15:00:55.158Z,63.12
2022-09-03T15:03:54.980Z,62.92
2022-09-03T15:06:34.235Z,63.03
2022-09-03T15:09:34.345Z,62.85
2022-09-03T15:12:10.195Z,62.70
2022-09-03T15:14:43.740Z,62.64
2022-09-03T15:17:33.885Z,62.52
2022-09-03T15:20:31.582Z,62.76
2022-09-03T15:23:22.353Z,62.67
2022-09-03T15:26:32.100Z,62.63
2022-09-03T15:29:19.119Z,62.43
2022-09-03T15:31:55.746Z,62.21
2022-09-03T15:35:03.830Z,62.31
2022-09-03T15:37:50.593Z,62.06
2022-09-03T15:40:39.341Z,61.99
2022-09-03T15:43:17.371Z,61.98
2022-09-03T15:45:57.853Z,61.68
2022-09-03T15:48:48.310Z,61.61
2022-09-03T15:51:26.987Z,61.71
2022-09-03T15:54:09.515Z,61.91
2022-09-03T15:56:44.210Z,61.88
2022-09-03T15:59:20.244Z,61.73
2022-09-03T16:01:56.920Z,61.85
2022-09-03T16:04:40.722Z,61.55
2022-09-03T16:07:17.993Z,61.61
2022-09-03T16:10:22.803Z,61.88
2022-09-03T16:12:59.330Z,61.66
2022-09-03T16:15:34.790Z,61.83
2022-09-03T16:18:10.820Z,62.12
2022-09-03T16:20:45.156Z,62.15
2022-09-03T16:23:21.810Z,61.73
2022-09-03T16:25:54.816Z,61.74
2022-09-03T16:28:31.705Z,62.20
2022-09-03T16:31:12.684Z,62.44
2022-09-03T16:33:51.336Z,62.26
2022-09-03T16:36:39.045Z,62.50
2022-09-03T16:39:17.970Z,61.78
2022-09-03T16:41:58.015Z,61.82
2022-09-03T16:44:39.055Z,62.00
2022-09-03T16:47:15.225Z,61.62
2022-09-03T16:49:56.295Z,61.92
2022-09-03T16:52:38.890Z,61.75
2022-09-03T16:55:21.908Z,62.21
2022-09-03T16:58:08.435Z,61.80
2022-09-03T17:00:55.711Z,61.38
2022-09-03T17:03:46.565Z,60.89
2022-09-03T17:06:38.065Z,53.68
2022-09-03T17:09:19.375Z,44.26
2022-09-03T17:12:02.065Z,40.15
2022-09-03T17:14:48.725Z,38.84
2022-09-03T17:17:27.855Z,40.53
2022-09-03T17:20:07.495Z,39.30
2022-09-03T17:22:50.074Z,38.78
2022-09-03T17:25:30.515Z,38.00
2022-09-03T17:28:25.000Z,41.60
2022-09-03T17:30:59.241Z,40.86
2022-09-03T17:34:07.495Z,50.40
2022-09-03T17:36:39.355Z,54.23
2022-09-03T17:39:23.421Z,55.21
2022-09-03T17:41:54.772Z,58.22
2022-09-03T17:44:39.147Z,58.41
2022-09-03T17:47:31.756Z,57.99
2022-09-03T17:50:07.045Z,58.06
2022-09-03T17:52:43.405Z,58.33
2022-09-03T17:55:22.727Z,58.28
2022-09-03T17:57:55.745Z,58.68
2022-09-03T18:00:26.086Z,58.55
2022-09-03T18:03:02.166Z,58.81
2022-09-03T18:05:36.087Z,58.97
2022-09-03T18:08:10.005Z,58.72
2022-09-03T18:10:52.114Z,58.74
2022-09-03T18:13:33.005Z,58.31
2022-09-03T18:16:08.114Z,57.68
2022-09-03T18:18:44.175Z,58.22
2022-09-03T18:21:35.914Z,58.40
2022-09-03T18:24:29.643Z,58.73
2022-09-03T18:27:20.643Z,58.81
2022-09-03T18:30:12.825Z,58.69
2022-09-03T18:32:58.356Z,58.69
2022-09-03T18:35:48.190Z,58.89
2022-09-03T18:38:36.904Z,59.01
2022-09-03T18:41:30.454Z,59.20
2022-09-03T18:44:25.595Z,59.48
2022-09-03T18:50:32.144Z,58.88
2022-09-03T18:53:32.470Z,59.22
2022-09-03T18:56:33.055Z,59.63
2022-09-03T18:59:36.064Z,59.80
2022-09-03T19:02:28.986Z,60.12
2022-09-03T19:05:32.033Z,60.05
2022-09-03T19:08:24.955Z,59.96
2022-09-03T19:11:16.854Z,60.27
2022-09-03T19:14:04.508Z,60.37
2022-09-03T19:17:02.015Z,60.67
2022-09-03T19:20:05.705Z,60.64
2022-09-03T19:22:53.766Z,60.40
2022-09-03T19:25:40.345Z,60.69
2022-09-03T19:28:34.584Z,60.57
2022-09-03T19:31:50.746Z,60.20
2022-09-03T19:34:52.124Z,60.78
2022-09-03T19:37:41.735Z,61.06
2022-09-03T19:40:57.076Z,60.85
2022-09-03T19:43:52.264Z,61.11
2022-09-03T19:46:45.984Z,61.11
2022-09-03T19:49:43.544Z,61.06
2022-09-03T19:52:39.914Z,61.12
2022-09-03T19:55:28.984Z,61.57
2022-09-03T19:58:41.603Z,61.32
2022-09-03T20:01:25.123Z,61.40
2022-09-03T20:04:11.446Z,61.40
2022-09-03T20:06:57.854Z,61.27
2022-09-03T20:09:55.194Z,61.70
2022-09-03T20:12:27.364Z,61.81
2022-09-03T20:14:56.014Z,61.43
2022-09-03T20:17:37.014Z,61.54
2022-09-03T20:20:16.824Z,61.85
2022-09-03T20:22:52.886Z,61.89
2022-09-03T20:25:46.514Z,61.81
2022-09-03T20:28:37.564Z,61.56
2022-09-03T20:31:17.072Z,61.65
2022-09-03T20:33:58.215Z,62.04
2022-09-03T20:36:35.637Z,61.95
2022-09-03T20:39:24.929Z,62.12
2022-09-03T20:42:11.054Z,61.81
2022-09-03T20:44:52.494Z,61.93
2022-09-03T20:48:06.933Z,61.88
2022-09-03T20:50:51.295Z,62.33
2022-09-03T20:53:36.119Z,62.51
2022-09-03T20:56:15.044Z,62.38
2022-09-03T20:58:52.394Z,62.54
2022-09-03T21:01:28.834Z,62.96
2022-09-03T21:04:16.014Z,63.03
2022-09-03T21:06:52.505Z,63.29
2022-09-03T21:09:31.104Z,63.56
2022-09-03T21:12:08.594Z,63.55
2022-09-03T21:14:44.104Z,63.82
2022-09-03T21:17:29.064Z,63.79
2022-09-03T21:20:18.839Z,64.23
2022-09-03T21:23:01.474Z,64.04
2022-09-03T21:25:36.846Z,64.18
2022-09-03T21:28:14.334Z,64.46
2022-09-03T21:30:49.879Z,64.59
2022-09-03T21:33:21.855Z,64.51
2022-09-03T21:35:55.664Z,64.89
2022-09-03T21:38:28.704Z,64.86
2022-09-03T21:41:03.661Z,65.10
2022-09-03T21:43:39.706Z,65.10
2022-09-03T21:46:15.488Z,65.31
2022-09-03T21:48:52.114Z,65.14
2022-09-03T21:51:26.184Z,65.39
2022-09-03T21:53:58.705Z,65.34
2022-09-03T21:56:39.744Z,65.38
2022-09-03T21:59:14.930Z,65.40
2022-09-03T22:01:57.700Z,65.60
2022-09-03T22:04:27.426Z,65.48
2022-09-03T22:07:04.384Z,65.74
2022-09-03T22:09:39.445Z,65.82
2022-09-03T22:12:14.824Z,65.84
2022-09-03T22:14:48.657Z,65.86
2022-09-03T22:17:24.565Z,65.71
2022-09-03T22:19:53.006Z,65.85
2022-09-03T22:22:30.055Z,65.72
2022-09-03T22:25:05.344Z,65.63
2022-09-03T22:27:40.135Z,65.76
2022-09-03T22:30:11.538Z,65.81
2022-09-03T22:32:55.045Z,66.04
2022-09-03T22:35:37.084Z,65.79
2022-09-03T22:38:23.498Z,65.63
2022-09-03T22:41:01.856Z,65.58
2022-09-03T22:43:39.794Z,65.94
2022-09-03T22:46:12.795Z,66.06
2022-09-03T22:49:22.076Z,65.62
2022-09-03T22:52:03.056Z,65.44
2022-09-03T22:54:47.225Z,65.74
2022-09-03T22:57:17.714Z,65.86
2022-09-03T23:00:01.304Z,65.47
2022-09-03T23:02:31.734Z,65.81
2022-09-03T23:05:07.086Z,65.71
2022-09-03T23:07:46.406Z,65.50
2022-09-03T23:10:25.565Z,65.59
2022-09-03T23:13:04.955Z,65.61
2022-09-03T23:15:37.674Z,65.58
2022-09-03T23:18:10.434Z,65.54
2022-09-03T23:20:44.864Z,65.46
2022-09-03T23:23:18.790Z,65.48
2022-09-03T23:25:51.914Z,65.76
2022-09-03T23:28:25.721Z,65.44
2022-09-03T23:30:56.059Z,65.13
2022-09-03T23:33:24.695Z,65.56
2022-09-03T23:36:03.985Z,65.37
2022-09-03T23:38:45.974Z,65.23
2022-09-03T23:41:25.708Z,64.92
2022-09-03T23:44:12.995Z,64.80
2022-09-03T23:46:59.984Z,65.13
2022-09-03T23:49:38.115Z,65.35
2022-09-03T23:52:35.944Z,65.11
2022-09-03T23:55:19.134Z,65.13
2022-09-03T23:57:59.324Z,65.20
